×

Discussion Board

Page 1 of 2 12 LastLast
Results 1 to 15 of 22
  1. #1
    Registered User
    Join Date
    Feb 2008
    Posts
    2

    Simulation PSY - its got me stuck

    I wrote an map application using the location api and it works just fine under the wireless toolkit 2.2 emulators.

    After a few tweaks i got it working in the s60 emulator bar one small problem.

    I cannot for love nor money get the damned Simulation PSY to build a .nme file containing coordinates that have a negative longitude (i.e -1.4533...) and a positive latitude (i.e. 50.8923..) I can get other combinations just fine (both positive or both negative) but not one of each.

    Am i being a bit of a dummy and missing something here, its really frustrating (as to get my app working the coordinates must be correct).

    Any help will be muchos appreciated.

    Cheers

  2. #2
    Regular Contributor
    Join Date
    Jul 2007
    Posts
    83

    Re: Simulation PSY - its got me stuck

    Hi woowoo!

    how you wrote the application..
    can you share the code with me .. I am also trying to make LBS application..but so far no success...can yea help me in it...
    thanks...
    regards...

    KAI

  3. #3
    Registered User
    Join Date
    Jun 2008
    Posts
    14

    Re: Simulation PSY - its got me stuck

    same problem here. making me crazy!!!

    I can not give positive values for latitude and negative values for longtitude.

    i gotto do that! plz help

  4. #4
    Nokia Developer Moderator
    Join Date
    Sep 2004
    Location
    Tampere, Finland
    Posts
    11,355

    Re: Simulation PSY - its got me stuck

    Are you getting coordinates from the Wester and Southern hemispheres? If so those are the most negative values you can get.

    See the image below:



    Notice the negative values in the scaling coordinates as well as the coordinates of the last plot? They contain negative values however, -20 left means in fact 20,00W while -20 bottom means 20,00S.

    The corresponding NMEA file shows also only positive values as they are mapped in the corresponding hemispheres.

    Code:
    $GPGGA,010000.00,1947.99999,N,02055.4913,E,1,04,1.5,1,M,,,,*1E
    $GPGLL,1947.99999,N,02055.4913,E,010000.00,A,A*57
    $GPGSA,A,3,01,02,03,04,,,,,,,,,1.0,2.0,3.0*36
    $GPRMC,010000.00,A,1947.99999,N,02055.4913,E,29.1576,-0.0,010704,,,A*41
    $GPGGA,010010.00,2000.0,N,02055.4913,E,1,04,1.5,1,M,,,,*1F
    $GPGLL,2000.0,N,02055.4913,E,010010.00,A,A*56
    $GPGSA,A,3,01,02,03,04,,,,,,,,,1.0,2.0,3.0*36
    $GPRMC,010010.00,A,2000.0,N,02055.4913,E,29.1576,105.79029,010704,,,A*6C
    $GPGGA,010020.00,1636.00000,N,03256.8786,E,1,04,1.5,1,M,,,,*12
    $GPGLL,1636.00000,N,03256.8786,E,010020.00,A,A*5B
    $GPGSA,A,3,01,02,03,04,,,,,,,,,1.0,2.0,3.0*36
    $GPRMC,010020.00,A,1636.00000,N,03256.8786,E,29.1576,107.23764,010704,,,A*62
    $GPGGA,010030.00,1000.0,N,05413.1791,E,1,04,1.5,1,M,,,,*1E
    $GPGLL,1000.0,N,05413.1791,E,010030.00,A,A*57
    $GPGSA,A,3,01,02,03,04,,,,,,,,,1.0,2.0,3.0*36
    $GPRMC,010030.00,A,1000.0,N,05413.1791,E,29.1576,111.26848,010704,,,A*6D
    $GPGGA,010040.00,0248.00000,N,07243.0057,E,1,04,1.5,1,M,,,,*1B
    $GPGLL,0248.00000,N,07243.0057,E,010040.00,A,A*52
    $GPGSA,A,3,01,02,03,04,,,,,,,,,1.0,2.0,3.0*36
    $GPRMC,010040.00,A,0248.00000,N,07243.0057,E,29.1576,91.179855,010704,,,A*66
    $GPGGA,010050.00,0136.00000,N,13058.9595,E,1,04,1.5,1,M,,,,*1F
    $GPGLL,0136.00000,N,13058.9595,E,010050.00,A,A*56
    $GPGSA,A,3,01,02,03,04,,,,,,,,,1.0,2.0,3.0*36
    $GPRMC,010050.00,A,0136.00000,N,13058.9595,E,29.1576,89.380516,010704,,,A*65
    $GPGGA,010100.00,0200.0,N,16758.6127,E,1,04,1.5,1,M,,,,*1D
    $GPGLL,0200.0,N,16758.6127,E,010100.00,A,A*54
    $GPGSA,A,3,01,02,03,04,,,,,,,,,1.0,2.0,3.0*36
    $GPRMC,010100.00,A,0200.0,N,16758.6127,E,29.1576,98.20362,010704,,,A*5B
    $GPGGA,010110.00,0048.00000,N,17618.0346,E,1,04,1.5,1,M,,,,*15
    $GPGLL,0048.00000,N,17618.0346,E,010110.00,A,A*5C
    $GPGSA,A,3,01,02,03,04,,,,,,,,,1.0,2.0,3.0*36
    $GPRMC,010110.00,A,0048.00000,N,17618.0346,E,29.1576,269.54404,010704,,,A*6B
    $GPGGA,010120.00,0148.00000,S,15024.2774,W,1,04,1.5,1,M,,,,*14
    $GPGLL,0148.00000,S,15024.2774,W,010120.00,A,A*5D
    $GPGSA,A,3,01,02,03,04,,,,,,,,,1.0,2.0,3.0*36
    $GPRMC,010120.00,A,0148.00000,S,15024.2774,W,29.1576,95.37987,010704,,,A*58
    $GPGGA,010130.00,0711.99999,S,09303.8150,W,1,04,1.5,1,M,,,,*17
    $GPGLL,0711.99999,S,09303.8150,W,010130.00,A,A*5E
    $GPGSA,A,3,01,02,03,04,,,,,,,,,1.0,2.0,3.0*36
    $GPRMC,010130.00,A,0711.99999,S,09303.8150,W,29.1576,103.2275,010704,,,A*55
    $GPGGA,010140.00,1211.99999,S,07147.5144,W,1,04,1.5,1,M,,,,*10
    $GPGLL,1211.99999,S,07147.5144,W,010140.00,A,A*59
    $GPGSA,A,3,01,02,03,04,,,,,,,,,1.0,2.0,3.0*36
    $GPRMC,010140.00,A,1211.99999,S,07147.5144,W,29.1576,102.20232,010704,,,A*60
    $GPGGA,010150.00,1711.99999,S,04840.2312,W,1,04,1.5,1,M,,,,*1F
    $GPGLL,1711.99999,S,04840.2312,W,010150.00,A,A*56
    $GPGSA,A,3,01,02,03,04,,,,,,,,,1.0,2.0,3.0*36
    $GPRMC,010150.00,A,1711.99999,S,04840.2312,W,29.1576,93.936134,010704,,,A*6D
    $GPGGA,010200.00,1836.00000,S,02819.4219,W,1,04,1.5,1,M,,,,*1C
    $GPGLL,1836.00000,S,02819.4219,W,010200.00,A,A*55
    $GPGSA,A,3,01,02,03,04,,,,,,,,,1.0,2.0,3.0*36
    $GPRMC,010200.00,A,1836.00000,S,02819.4219,W,29.1576,98.780754,010704,,,A*66
    $GPGGA,010210.00,1936.00000,S,02150.9826,W,1,04,1.5,1,M,,,,*13
    $GPGLL,1936.00000,S,02150.9826,W,010210.00,A,A*5A
    $GPGSA,A,3,01,02,03,04,,,,,,,,,1.0,2.0,3.0*36
    $GPRMC,010210.00,A,1936.00000,S,02150.9826,W,29.1576,284.9742,010704,,,A*57
    $GPGGA,010220.00,0048.00000,S,09208.3236,W,1,04,1.5,1,M,,,,*15
    $GPGLL,0048.00000,S,09208.3236,W,010220.00,A,A*5C
    $GPGSA,A,3,01,02,03,04,,,,,,,,,1.0,2.0,3.0*36
    $GPRMC,010220.00,A,0048.00000,S,09208.3236,W,29.1576,90.76048,010704,,,A*53
    $GPGGA,010230.00,0424.00000,S,17904.5086,E,1,04,1.5,1,M,,,,*F
    $GPGLL,0424.00000,S,17904.5086,E,010230.00,A,A*46
    $GPGSA,A,3,01,02,03,04,,,,,,,,,1.0,2.0,3.0*36
    $GPRMC,010230.00,A,0424.00000,S,17904.5086,E,29.1576,271.58133,010704,,,A*75
    $GPGGA,010240.00,0311.99999,S,13536.4161,E,1,04,1.5,1,M,,,,*0
    $GPGLL,0311.99999,S,13536.4161,E,010240.00,A,A*49
    $GPGSA,A,3,01,02,03,04,,,,,,,,,1.0,2.0,3.0*36
    $GPRMC,010240.00,A,0311.99999,S,13536.4161,E,29.1576,256.89035,010704,,,A*74
    $GPGGA,010250.00,0848.00000,S,11133.6416,E,1,04,1.5,1,M,,,,*B
    $GPGLL,0848.00000,S,11133.6416,E,010250.00,A,A*42
    $GPGSA,A,3,01,02,03,04,,,,,,,,,1.0,2.0,3.0*36
    $GPRMC,010250.00,A,0848.00000,S,11133.6416,E,29.1576,267.4673,010704,,,A*4C
    $GPGGA,010300.00,1035.99999,S,07052.0231,E,1,04,1.5,1,M,,,,*1
    $GPGLL,1035.99999,S,07052.0231,E,010300.00,A,A*48
    $GPGSA,A,3,01,02,03,04,,,,,,,,,1.0,2.0,3.0*36
    $GPRMC,010300.00,A,1035.99999,S,07052.0231,E,29.1576,247.0,010704,,,A*72
    Is it clear now?
    Last edited by ltomuta; 2008-06-01 at 20:23. Reason: Small change for clarity
    -- Lucian

    If you are not yet a DVLUP member it is time to correct that mistake :) Click here to join: http://www.dvlup.com/lucian/Invite

  5. #5
    Nokia Developer Moderator
    Join Date
    Sep 2004
    Location
    Tampere, Finland
    Posts
    11,355

    Re: Simulation PSY - its got me stuck

    Quote Originally Posted by ltomuta View Post
    They contain negative values however, -20 left means in fact 20,00W while -20 bottom means 20,00S.
    Hmm, the tool does seem to reverse the E and W hemispheres. Well, small detail
    -- Lucian

    If you are not yet a DVLUP member it is time to correct that mistake :) Click here to join: http://www.dvlup.com/lucian/Invite

  6. #6
    Registered User
    Join Date
    Jun 2008
    Posts
    14

    Re: Simulation PSY - its got me stuck

    it is a big problem for me, i am getting like -170s and so weird values. and there is no way for me to test my application live, cause it is multiplayer app and needs like 5 or 6 device go collect necessary info for me.

    tool acts like it takes the plot area and wraps it all over a sphere shape.

    i have test my project on WTK its ok, but i have to test it S60 SDK? it really feels so unlucky and funny at the same time to getting stucked because of this kind of simple detail

    does anyone test the other versions of the tools? they were like this from beginning and nobody realized? i mean, really?

    and finally! plz help! what should i do?

  7. #7
    Nokia Developer Moderator
    Join Date
    Sep 2004
    Location
    Tampere, Finland
    Posts
    11,355

    Re: Simulation PSY - its got me stuck

    Can you share the details of your simulation like scale & NMEA data?
    -- Lucian

    If you are not yet a DVLUP member it is time to correct that mistake :) Click here to join: http://www.dvlup.com/lucian/Invite

  8. #8
    Registered User
    Join Date
    Jun 2008
    Posts
    14

    Re: Simulation PSY - its got me stuck

    yea, of course;

    here is the picture1,

    here is the picture2 (click for big one),

    here is the picture3 (click for big one),


    you can see that it must start from -6 something from left and go all the way with -6 something to the right. but as you can see from picture 1 and 2 it decreses until -179.9999 (yes true) to the middle of the plot, and after that it swiches to positive number 179.999 then start to decrease as you move to the right and come back again to minus numbers until -6

    its goes like that from left to right:

    (left)-6.etc->decrease until -179->(middle of plot)-reached to 180 degrees; so tool switches from (minus)179.9 to (plus)179.9->start from 179 and decrease until zero and then to minus values-> -6.etc(right)

    so the right most and left most of the plot have the true values but any other point you get from plot is wrong...

    here is the nme file, may be it helps (i dont understant a thing from this by the way);
    Code:
    $GPGGA,010000.00,5318.47582,N,00920.8495,E,1,04,1.5,1,M,,,,*19
    $GPGLL,5318.47582,N,00920.8495,E,010000.00,A,A*50
    $GPGSA,A,3,01,02,03,04,,,,,,,,,1.0,2.0,3.0*36
    $GPRMC,010000.00,A,5318.47582,N,00920.8495,E,29.1576,269.99997,010704,,,A*61
    $GPGGA,010010.00,5318.46931,N,17652.7421,W,1,04,1.5,1,M,,,,*3
    $GPGLL,5318.46931,N,17652.7421,W,010010.00,A,A*4A
    $GPGSA,A,3,01,02,03,04,,,,,,,,,1.0,2.0,3.0*36
    $GPRMC,010010.00,A,5318.46931,N,17652.7421,W,29.1576,89.99998,010704,,,A*48
    $GPGGA,010020.00,5318.47322,N,00305.7927,E,1,04,1.5,1,M,,,,*11
    $GPGLL,5318.47322,N,00305.7927,E,010020.00,A,A*58
    $GPGSA,A,3,01,02,03,04,,,,,,,,,1.0,2.0,3.0*36
    $GPRMC,010020.00,A,5318.47322,N,00305.7927,E,29.1576,180.00043,010704,,,A*6D
    $GPGGA,010030.00,5318.47279,N,00305.7927,E,1,04,1.5,1,M,,,,*1F
    $GPGLL,5318.47279,N,00305.7927,E,010030.00,A,A*56
    $GPGSA,A,3,01,02,03,04,,,,,,,,,1.0,2.0,3.0*36
    $GPRMC,010030.00,A,5318.47279,N,00305.7927,E,29.1576,247.0,010704,,,A*6C
    i know its been a long msg. but i think it must be clear after this.Thanks Itomuto also.

    edit: i realized that, when i switch the values for left and right values i got the true values for the points in the plot, but it makes no sense as long as you write left value as right and right value as left.
    Last edited by jrgarga; 2008-06-02 at 15:44. Reason: picture host went down,uploaded to an other one and change links...

  9. #9
    Nokia Developer Moderator
    Join Date
    Sep 2004
    Location
    Tampere, Finland
    Posts
    11,355

    Re: Simulation PSY - its got me stuck

    I've reported this to R&D for investigation.
    -- Lucian

    If you are not yet a DVLUP member it is time to correct that mistake :) Click here to join: http://www.dvlup.com/lucian/Invite

  10. #10
    Registered User
    Join Date
    Jun 2008
    Posts
    14

    Re: Simulation PSY - its got me stuck

    Quote Originally Posted by ltomuta View Post
    I've reported this to R&D for investigation.
    thank you vry much.

    is there any way that i can do the same? sorry, i am really new here.

    and do you know how long it will take for them to response in any kind of form?

  11. #11
    Nokia Developer Moderator
    Join Date
    Sep 2004
    Location
    Tampere, Finland
    Posts
    11,355

    Re: Simulation PSY - its got me stuck

    Info about the bug report channel can be found here.

    As for the fix timeframe that is not easy to predict as it depends on the prosperity/severity assigned to the problem and obviously the workload of the responsible R&D teams.
    -- Lucian

    If you are not yet a DVLUP member it is time to correct that mistake :) Click here to join: http://www.dvlup.com/lucian/Invite

  12. #12
    Registered User
    Join Date
    Jul 2008
    Posts
    2

    Re: Simulation PSY - its got me stuck

    Hello,
    I'm trying to find this tool to generate this nmea files. Where can I find this software tool???.

    Thank you!.


    Quote Originally Posted by ltomuta View Post
    Are you getting coordinates from the Wester and Southern hemispheres? If so those are the most negative values you can get.

    See the image below:



    Notice the negative values in the scaling coordinates as well as the coordinates of the last plot? They contain negative values however, -20 left means in fact 20,00W while -20 bottom means 20,00S.

    The corresponding NMEA file shows also only positive values as they are mapped in the corresponding hemispheres.

    Code:
    $GPGGA,010000.00,1947.99999,N,02055.4913,E,1,04,1.5,1,M,,,,*1E
    $GPGLL,1947.99999,N,02055.4913,E,010000.00,A,A*57
    $GPGSA,A,3,01,02,03,04,,,,,,,,,1.0,2.0,3.0*36
    $GPRMC,010000.00,A,1947.99999,N,02055.4913,E,29.1576,-0.0,010704,,,A*41
    $GPGGA,010010.00,2000.0,N,02055.4913,E,1,04,1.5,1,M,,,,*1F
    $GPGLL,2000.0,N,02055.4913,E,010010.00,A,A*56
    $GPGSA,A,3,01,02,03,04,,,,,,,,,1.0,2.0,3.0*36
    $GPRMC,010010.00,A,2000.0,N,02055.4913,E,29.1576,105.79029,010704,,,A*6C
    $GPGGA,010020.00,1636.00000,N,03256.8786,E,1,04,1.5,1,M,,,,*12
    $GPGLL,1636.00000,N,03256.8786,E,010020.00,A,A*5B
    $GPGSA,A,3,01,02,03,04,,,,,,,,,1.0,2.0,3.0*36
    $GPRMC,010020.00,A,1636.00000,N,03256.8786,E,29.1576,107.23764,010704,,,A*62
    $GPGGA,010030.00,1000.0,N,05413.1791,E,1,04,1.5,1,M,,,,*1E
    $GPGLL,1000.0,N,05413.1791,E,010030.00,A,A*57
    $GPGSA,A,3,01,02,03,04,,,,,,,,,1.0,2.0,3.0*36
    $GPRMC,010030.00,A,1000.0,N,05413.1791,E,29.1576,111.26848,010704,,,A*6D
    $GPGGA,010040.00,0248.00000,N,07243.0057,E,1,04,1.5,1,M,,,,*1B
    $GPGLL,0248.00000,N,07243.0057,E,010040.00,A,A*52
    $GPGSA,A,3,01,02,03,04,,,,,,,,,1.0,2.0,3.0*36
    $GPRMC,010040.00,A,0248.00000,N,07243.0057,E,29.1576,91.179855,010704,,,A*66
    $GPGGA,010050.00,0136.00000,N,13058.9595,E,1,04,1.5,1,M,,,,*1F
    $GPGLL,0136.00000,N,13058.9595,E,010050.00,A,A*56
    $GPGSA,A,3,01,02,03,04,,,,,,,,,1.0,2.0,3.0*36
    $GPRMC,010050.00,A,0136.00000,N,13058.9595,E,29.1576,89.380516,010704,,,A*65
    $GPGGA,010100.00,0200.0,N,16758.6127,E,1,04,1.5,1,M,,,,*1D
    $GPGLL,0200.0,N,16758.6127,E,010100.00,A,A*54
    $GPGSA,A,3,01,02,03,04,,,,,,,,,1.0,2.0,3.0*36
    $GPRMC,010100.00,A,0200.0,N,16758.6127,E,29.1576,98.20362,010704,,,A*5B
    $GPGGA,010110.00,0048.00000,N,17618.0346,E,1,04,1.5,1,M,,,,*15
    $GPGLL,0048.00000,N,17618.0346,E,010110.00,A,A*5C
    $GPGSA,A,3,01,02,03,04,,,,,,,,,1.0,2.0,3.0*36
    $GPRMC,010110.00,A,0048.00000,N,17618.0346,E,29.1576,269.54404,010704,,,A*6B
    $GPGGA,010120.00,0148.00000,S,15024.2774,W,1,04,1.5,1,M,,,,*14
    $GPGLL,0148.00000,S,15024.2774,W,010120.00,A,A*5D
    $GPGSA,A,3,01,02,03,04,,,,,,,,,1.0,2.0,3.0*36
    $GPRMC,010120.00,A,0148.00000,S,15024.2774,W,29.1576,95.37987,010704,,,A*58
    $GPGGA,010130.00,0711.99999,S,09303.8150,W,1,04,1.5,1,M,,,,*17
    $GPGLL,0711.99999,S,09303.8150,W,010130.00,A,A*5E
    $GPGSA,A,3,01,02,03,04,,,,,,,,,1.0,2.0,3.0*36
    $GPRMC,010130.00,A,0711.99999,S,09303.8150,W,29.1576,103.2275,010704,,,A*55
    $GPGGA,010140.00,1211.99999,S,07147.5144,W,1,04,1.5,1,M,,,,*10
    $GPGLL,1211.99999,S,07147.5144,W,010140.00,A,A*59
    $GPGSA,A,3,01,02,03,04,,,,,,,,,1.0,2.0,3.0*36
    $GPRMC,010140.00,A,1211.99999,S,07147.5144,W,29.1576,102.20232,010704,,,A*60
    $GPGGA,010150.00,1711.99999,S,04840.2312,W,1,04,1.5,1,M,,,,*1F
    $GPGLL,1711.99999,S,04840.2312,W,010150.00,A,A*56
    $GPGSA,A,3,01,02,03,04,,,,,,,,,1.0,2.0,3.0*36
    $GPRMC,010150.00,A,1711.99999,S,04840.2312,W,29.1576,93.936134,010704,,,A*6D
    $GPGGA,010200.00,1836.00000,S,02819.4219,W,1,04,1.5,1,M,,,,*1C
    $GPGLL,1836.00000,S,02819.4219,W,010200.00,A,A*55
    $GPGSA,A,3,01,02,03,04,,,,,,,,,1.0,2.0,3.0*36
    $GPRMC,010200.00,A,1836.00000,S,02819.4219,W,29.1576,98.780754,010704,,,A*66
    $GPGGA,010210.00,1936.00000,S,02150.9826,W,1,04,1.5,1,M,,,,*13
    $GPGLL,1936.00000,S,02150.9826,W,010210.00,A,A*5A
    $GPGSA,A,3,01,02,03,04,,,,,,,,,1.0,2.0,3.0*36
    $GPRMC,010210.00,A,1936.00000,S,02150.9826,W,29.1576,284.9742,010704,,,A*57
    $GPGGA,010220.00,0048.00000,S,09208.3236,W,1,04,1.5,1,M,,,,*15
    $GPGLL,0048.00000,S,09208.3236,W,010220.00,A,A*5C
    $GPGSA,A,3,01,02,03,04,,,,,,,,,1.0,2.0,3.0*36
    $GPRMC,010220.00,A,0048.00000,S,09208.3236,W,29.1576,90.76048,010704,,,A*53
    $GPGGA,010230.00,0424.00000,S,17904.5086,E,1,04,1.5,1,M,,,,*F
    $GPGLL,0424.00000,S,17904.5086,E,010230.00,A,A*46
    $GPGSA,A,3,01,02,03,04,,,,,,,,,1.0,2.0,3.0*36
    $GPRMC,010230.00,A,0424.00000,S,17904.5086,E,29.1576,271.58133,010704,,,A*75
    $GPGGA,010240.00,0311.99999,S,13536.4161,E,1,04,1.5,1,M,,,,*0
    $GPGLL,0311.99999,S,13536.4161,E,010240.00,A,A*49
    $GPGSA,A,3,01,02,03,04,,,,,,,,,1.0,2.0,3.0*36
    $GPRMC,010240.00,A,0311.99999,S,13536.4161,E,29.1576,256.89035,010704,,,A*74
    $GPGGA,010250.00,0848.00000,S,11133.6416,E,1,04,1.5,1,M,,,,*B
    $GPGLL,0848.00000,S,11133.6416,E,010250.00,A,A*42
    $GPGSA,A,3,01,02,03,04,,,,,,,,,1.0,2.0,3.0*36
    $GPRMC,010250.00,A,0848.00000,S,11133.6416,E,29.1576,267.4673,010704,,,A*4C
    $GPGGA,010300.00,1035.99999,S,07052.0231,E,1,04,1.5,1,M,,,,*1
    $GPGLL,1035.99999,S,07052.0231,E,010300.00,A,A*48
    $GPGSA,A,3,01,02,03,04,,,,,,,,,1.0,2.0,3.0*36
    $GPRMC,010300.00,A,1035.99999,S,07052.0231,E,29.1576,247.0,010704,,,A*72
    Is it clear now?

  13. #13
    Nokia Developer Moderator
    Join Date
    Sep 2004
    Location
    Tampere, Finland
    Posts
    11,355

    Re: Simulation PSY - its got me stuck

    Look in the S60 emulator window's Tools->Utilities menu.
    -- Lucian

    If you are not yet a DVLUP member it is time to correct that mistake :) Click here to join: http://www.dvlup.com/lucian/Invite

  14. #14
    Registered User
    Join Date
    Jul 2008
    Posts
    2

    Re: Simulation PSY - its got me stuck

    Can you send me the link for download the application please?
    with this information I don't achieve find the tool!

    Thank you!

    Quote Originally Posted by ltomuta View Post
    Look in the S60 emulator window's Tools->Utilities menu.

  15. #15
    Nokia Developer Moderator
    Join Date
    Sep 2004
    Location
    Tampere, Finland
    Posts
    11,355

    Re: Simulation PSY - its got me stuck

    Do you have one of the S60 SDK installed? If so, you need no other tool. If not, see the second link in my signature below.
    -- Lucian

    If you are not yet a DVLUP member it is time to correct that mistake :) Click here to join: http://www.dvlup.com/lucian/Invite

Similar Threads

  1. [announce] simulation of any key press
    By cyke64 in forum Symbian
    Replies: 23
    Last Post: 2009-10-20, 10:35
  2. httplib stuck on response
    By roidayan in forum Symbian
    Replies: 2
    Last Post: 2008-01-28, 05:58
  3. How to use the simulation PSY in java?
    By punding in forum Mobile Java Tools & SDKs
    Replies: 0
    Last Post: 2007-09-10, 16:24
  4. Replies: 1
    Last Post: 2003-10-30, 06:38
  5. Does Nokia 6590 Simulation support MMS with SMIL?!
    By icting in forum General Messaging
    Replies: 3
    Last Post: 2002-08-29, 08:00

Posting Permissions

  • You may not post new threads
  • You may not post replies
  • You may not post attachments
  • You may not edit your posts
  •